createdAt,value
2019-05-19T00:00:02.320Z,64.17
2019-05-19T00:02:31.448Z,63.45
2019-05-19T00:05:00.728Z,61.87
2019-05-19T00:07:29.832Z,61.62
2019-05-19T00:09:58.862Z,60.54
2019-05-19T00:12:27.972Z,60.35
2019-05-19T00:14:57.000Z,60.34
2019-05-19T00:17:26.125Z,59.13
2019-05-19T00:19:55.141Z,58.75
2019-05-19T00:22:24.162Z,58.96
2019-05-19T00:24:53.196Z,60.31
2019-05-19T00:27:23.277Z,62.97
2019-05-19T00:29:52.300Z,67.50
2019-05-19T00:32:21.348Z,67.71
2019-05-19T00:34:50.380Z,66.00
2019-05-19T00:37:19.405Z,64.84
2019-05-19T00:39:48.812Z,64.37
2019-05-19T00:42:17.831Z,64.09
2019-05-19T00:44:46.946Z,63.81
2019-05-19T00:47:15.966Z,63.42
2019-05-19T00:49:45.000Z,63.50
2019-05-19T00:52:14.108Z,62.85
2019-05-19T00:54:43.146Z,63.08
2019-05-19T00:57:12.165Z,62.51
2019-05-19T00:59:41.588Z,62.43
2019-05-19T01:02:10.592Z,61.92
2019-05-19T01:04:39.698Z,61.47
2019-05-19T01:07:09.082Z,61.48
2019-05-19T01:09:38.089Z,61.25
2019-05-19T01:12:07.124Z,61.20
2019-05-19T01:14:36.215Z,61.23
2019-05-19T01:17:05.284Z,60.99
2019-05-19T01:19:34.278Z,60.85
2019-05-19T01:22:03.313Z,60.55
2019-05-19T01:24:32.345Z,60.59
2019-05-19T01:27:01.380Z,60.34
2019-05-19T01:29:30.409Z,60.09
2019-05-19T01:31:59.490Z,60.04
2019-05-19T01:34:28.583Z,59.96
2019-05-19T01:36:57.900Z,60.13
2019-05-19T01:39:26.949Z,60.16
2019-05-19T01:41:56.055Z,60.31
2019-05-19T01:44:25.079Z,60.43
2019-05-19T01:46:54.130Z,60.31
2019-05-19T01:49:23.430Z,59.94
2019-05-19T01:51:52.472Z,60.11
2019-05-19T01:54:21.500Z,60.13
2019-05-19T01:56:50.606Z,60.21
2019-05-19T01:59:19.636Z,60.10
2019-05-19T02:01:48.707Z,60.21
2019-05-19T02:04:17.786Z,60.25
2019-05-19T02:06:46.882Z,60.25
2019-05-19T02:09:16.935Z,59.92
2019-05-19T02:11:45.962Z,59.97
2019-05-19T02:14:14.979Z,60.00
2019-05-19T02:16:44.020Z,59.77
2019-05-19T02:19:13.062Z,60.26
2019-05-19T02:21:42.083Z,60.23
2019-05-19T02:24:11.329Z,59.97
2019-05-19T02:26:40.369Z,60.35
2019-05-19T02:29:09.408Z,60.39
2019-05-19T02:31:38.444Z,60.48
2019-05-19T02:34:07.476Z,60.52
2019-05-19T02:36:36.531Z,60.28
2019-05-19T02:39:07.074Z,59.75
2019-05-19T02:41:36.323Z,59.00
2019-05-19T02:44:05.432Z,57.65
2019-05-19T02:46:34.653Z,58.21
2019-05-19T02:49:03.829Z,59.32
2019-05-19T02:51:34.438Z,61.39
2019-05-19T02:54:04.554Z,62.77
2019-05-19T02:56:33.601Z,67.09
2019-05-19T02:59:02.696Z,66.23
2019-05-19T03:01:31.740Z,64.41
2019-05-19T03:04:00.851Z,63.24
2019-05-19T03:06:29.872Z,62.10
2019-05-19T03:08:58.926Z,61.08
2019-05-19T03:11:28.109Z,60.49
2019-05-19T03:13:57.218Z,60.38
2019-05-19T03:16:26.283Z,59.88
2019-05-19T03:18:55.401Z,60.14
2019-05-19T03:21:24.426Z,60.52
2019-05-19T03:23:53.458Z,60.90
2019-05-19T03:26:22.486Z,61.25
2019-05-19T03:28:51.547Z,61.26
2019-05-19T03:31:27.888Z,61.14
2019-05-19T03:34:01.577Z,60.65
2019-05-19T03:36:30.661Z,60.26
2019-05-19T03:38:59.759Z,59.92
2019-05-19T03:41:28.794Z,59.79
2019-05-19T03:43:57.824Z,59.79
2019-05-19T03:46:26.855Z,59.63
2019-05-19T03:48:55.882Z,59.32
2019-05-19T03:51:30.795Z,58.51
2019-05-19T03:53:55.728Z,60.52
2019-05-19T03:56:24.758Z,62.73
2019-05-19T03:58:53.841Z,68.10
2019-05-19T04:01:22.926Z,67.76
2019-05-19T04:03:51.963Z,66.85
2019-05-19T04:06:21.000Z,66.05
2019-05-19T04:08:50.397Z,65.20
2019-05-19T04:11:19.437Z,64.53
2019-05-19T04:13:48.551Z,64.33
2019-05-19T04:16:17.609Z,64.00
2019-05-19T04:18:46.630Z,63.72
2019-05-19T04:21:15.661Z,63.18
2019-05-19T04:23:44.709Z,63.18
2019-05-19T04:26:13.721Z,63.15
2019-05-19T04:28:42.832Z,63.31
2019-05-19T04:31:11.841Z,63.30
2019-05-19T04:33:40.897Z,62.91
2019-05-19T04:36:10.221Z,63.10
2019-05-19T04:38:39.290Z,62.52
2019-05-19T04:41:08.349Z,62.24
2019-05-19T04:43:37.502Z,61.88
2019-05-19T04:46:06.549Z,61.72
2019-05-19T04:48:35.956Z,60.85
2019-05-19T04:51:04.997Z,60.57
2019-05-19T04:53:34.657Z,60.59
2019-05-19T04:56:03.697Z,60.73
2019-05-19T04:58:32.721Z,59.73
2019-05-19T05:01:01.757Z,59.09
2019-05-19T05:03:30.795Z,57.70
2019-05-19T05:05:59.845Z,59.44
2019-05-19T05:08:30.841Z,60.79
2019-05-19T05:10:59.625Z,63.04
2019-05-19T05:13:28.662Z,66.46
2019-05-19T05:15:57.702Z,65.80
2019-05-19T05:18:26.996Z,64.30
2019-05-19T05:20:56.087Z,62.49
2019-05-19T05:23:25.101Z,61.93
2019-05-19T05:25:54.194Z,60.93
2019-05-19T05:28:23.246Z,60.34
2019-05-19T05:30:52.594Z,59.67
2019-05-19T05:33:21.627Z,58.41
2019-05-19T05:35:50.671Z,59.02
2019-05-19T05:38:19.706Z,61.30
2019-05-19T05:40:48.731Z,61.52
2019-05-19T05:43:17.772Z,67.22
2019-05-19T05:45:47.034Z,66.72
2019-05-19T05:48:16.041Z,65.14
2019-05-19T05:50:45.097Z,63.95
2019-05-19T05:53:14.129Z,63.56
2019-05-19T05:55:43.162Z,62.73
2019-05-19T05:58:12.208Z,62.51
2019-05-19T06:00:41.281Z,62.19
2019-05-19T06:03:10.356Z,61.42
2019-05-19T06:05:39.386Z,61.33
2019-05-19T06:08:08.409Z,60.91
2019-05-19T06:10:37.434Z,60.73
2019-05-19T06:13:06.467Z,60.58
2019-05-19T06:15:35.526Z,60.42
2019-05-19T06:18:04.528Z,59.93
2019-05-19T06:20:33.584Z,59.09
2019-05-19T06:23:02.671Z,59.50
2019-05-19T06:25:31.730Z,58.62
2019-05-19T06:28:00.760Z,60.92
2019-05-19T06:30:29.838Z,66.44
2019-05-19T06:33:00.343Z,66.05
2019-05-19T06:35:29.370Z,64.46
2019-05-19T06:37:58.415Z,63.00
2019-05-19T06:40:27.518Z,61.69
2019-05-19T06:42:56.562Z,61.25
2019-05-19T06:45:25.693Z,60.92
2019-05-19T06:47:54.689Z,60.45
2019-05-19T06:50:23.728Z,60.06
2019-05-19T06:52:52.758Z,59.75
2019-05-19T06:55:21.832Z,59.62
2019-05-19T06:57:50.907Z,58.59
2019-05-19T07:00:19.924Z,60.82
2019-05-19T07:02:48.965Z,62.89
2019-05-19T07:05:19.128Z,65.41
2019-05-19T07:07:48.204Z,64.35
2019-05-19T07:10:17.263Z,62.94
2019-05-19T07:12:46.379Z,61.18
2019-05-19T07:15:15.738Z,60.73
2019-05-19T07:17:44.841Z,60.01
2019-05-19T07:20:13.862Z,58.28
2019-05-19T07:22:43.037Z,57.29
2019-05-19T07:25:13.680Z,58.23
2019-05-19T07:27:42.778Z,60.60
2019-05-19T07:30:13.437Z,63.38
2019-05-19T07:32:42.467Z,66.21
2019-05-19T07:35:11.732Z,65.41
2019-05-19T07:37:40.791Z,63.66
2019-05-19T07:40:10.202Z,60.42
2019-05-19T07:42:39.221Z,60.34
2019-05-19T07:45:08.270Z,58.51
2019-05-19T07:47:37.300Z,57.16
2019-05-19T07:50:06.770Z,57.41
2019-05-19T07:52:35.874Z,59.18
2019-05-19T07:55:08.862Z,61.74
2019-05-19T07:57:37.892Z,62.63
2019-05-19T08:00:09.882Z,65.46
2019-05-19T08:02:38.977Z,61.91
2019-05-19T08:05:08.289Z,60.07
2019-05-19T08:07:37.464Z,58.76
2019-05-19T08:10:07.286Z,56.10
2019-05-19T08:12:36.370Z,57.22
2019-05-19T08:15:07.750Z,57.43
2019-05-19T08:17:36.839Z,58.64
2019-05-19T08:20:08.745Z,59.49
2019-05-19T08:22:37.821Z,60.09
2019-05-19T08:25:08.348Z,60.86
2019-05-19T08:27:37.441Z,60.95
2019-05-19T08:30:09.974Z,62.28
2019-05-19T08:32:39.008Z,62.78
2019-05-19T08:35:08.311Z,65.89
2019-05-19T08:37:37.434Z,64.53
2019-05-19T08:40:06.689Z,59.60
2019-05-19T08:42:35.737Z,57.88
2019-05-19T08:45:07.806Z,58.13
2019-05-19T08:47:37.093Z,59.76
2019-05-19T08:50:07.597Z,60.52
2019-05-19T08:52:36.661Z,61.24
2019-05-19T08:55:06.519Z,62.77
2019-05-19T08:57:35.621Z,66.44
2019-05-19T09:00:06.717Z,64.22
2019-05-19T09:02:35.746Z,60.86
2019-05-19T09:05:06.477Z,59.15
2019-05-19T09:07:35.658Z,55.84
2019-05-19T09:10:08.347Z,56.57
2019-05-19T09:12:37.921Z,58.74
2019-05-19T09:15:07.275Z,58.99
2019-05-19T09:17:36.318Z,60.91
2019-05-19T09:20:06.792Z,63.24
2019-05-19T09:22:35.818Z,66.13
2019-05-19T09:25:07.930Z,64.04
2019-05-19T09:27:36.984Z,61.43
2019-05-19T09:30:10.661Z,60.67
2019-05-19T09:32:39.710Z,57.38
2019-05-19T09:35:08.763Z,58.14
2019-05-19T09:37:37.791Z,60.09
2019-05-19T09:40:09.545Z,60.62
2019-05-19T09:42:38.560Z,64.00
2019-05-19T09:45:10.370Z,65.46
2019-05-19T09:47:39.712Z,63.07
2019-05-19T09:50:08.830Z,60.32
2019-05-19T09:52:38.415Z,59.11
2019-05-19T09:55:07.431Z,56.39
2019-05-19T09:57:36.715Z,56.72
2019-05-19T10:00:10.456Z,57.85
2019-05-19T10:02:39.484Z,58.94
2019-05-19T10:05:08.678Z,59.25
2019-05-19T10:07:37.804Z,60.63
2019-05-19T10:10:11.348Z,61.39
2019-05-19T10:12:40.356Z,63.44
2019-05-19T10:15:10.325Z,64.54
2019-05-19T10:17:39.398Z,62.14
2019-05-19T10:20:09.244Z,57.94
2019-05-19T10:22:38.285Z,56.33
2019-05-19T10:25:20.827Z,55.13
2019-05-19T10:27:39.904Z,55.70
2019-05-19T10:30:09.166Z,56.35
2019-05-19T10:32:38.190Z,57.05
2019-05-19T10:35:07.785Z,56.86
2019-05-19T10:37:36.969Z,57.58
2019-05-19T10:40:06.577Z,57.96
2019-05-19T10:42:35.904Z,59.22
2019-05-19T10:45:08.817Z,60.06
2019-05-19T10:47:37.957Z,60.80
2019-05-19T10:50:07.458Z,61.24
2019-05-19T10:52:36.506Z,60.92
2019-05-19T10:55:06.290Z,61.29
2019-05-19T10:57:35.317Z,61.43
2019-05-19T11:00:07.006Z,62.47
2019-05-19T11:02:36.014Z,63.82
2019-05-19T11:05:06.893Z,62.29
2019-05-19T11:07:35.904Z,59.26
2019-05-19T11:10:07.511Z,55.93
2019-05-19T11:12:36.780Z,54.63
2019-05-19T11:15:08.576Z,54.99
2019-05-19T11:21:16.014Z,55.41
2019-05-19T11:23:45.034Z,56.00
2019-05-19T11:26:14.059Z,56.04
2019-05-19T11:28:43.066Z,56.86
2019-05-19T11:31:12.158Z,58.10
2019-05-19T11:33:41.219Z,57.29
2019-05-19T11:36:10.218Z,56.47
2019-05-19T11:38:39.280Z,57.02
2019-05-19T11:41:08.440Z,58.32
2019-05-19T11:43:37.466Z,58.16
2019-05-19T11:46:06.533Z,58.41
2019-05-19T11:48:35.560Z,59.08
2019-05-19T11:51:04.907Z,59.36
2019-05-19T11:53:33.887Z,59.24
2019-05-19T11:56:06.573Z,59.04
2019-05-19T11:58:33.685Z,58.63
2019-05-19T12:01:02.794Z,59.47
2019-05-19T12:03:31.905Z,58.84
2019-05-19T12:06:00.946Z,58.86
2019-05-19T12:08:29.976Z,59.15
2019-05-19T12:10:59.001Z,60.45
2019-05-19T12:13:28.132Z,62.29
2019-05-19T12:15:57.158Z,66.56
2019-05-19T12:18:26.176Z,66.60
2019-05-19T12:20:55.204Z,63.07
2019-05-19T12:23:24.229Z,63.15
2019-05-19T12:25:53.287Z,60.09
2019-05-19T12:28:22.332Z,58.51
2019-05-19T12:30:51.367Z,56.56
2019-05-19T12:33:20.391Z,57.57
2019-05-19T12:35:49.488Z,57.79
2019-05-19T12:38:18.611Z,57.63
2019-05-19T12:40:47.636Z,58.68
2019-05-19T12:43:16.650Z,59.10
2019-05-19T12:45:45.705Z,59.18
2019-05-19T12:48:14.712Z,60.29
2019-05-19T12:50:43.752Z,60.07
2019-05-19T12:53:12.819Z,59.53
2019-05-19T12:55:41.867Z,60.96
2019-05-19T12:58:10.951Z,60.01
2019-05-19T13:00:39.972Z,59.84
2019-05-19T13:03:08.980Z,60.24
2019-05-19T13:05:38.013Z,60.94
2019-05-19T13:08:07.059Z,61.40
2019-05-19T13:10:36.082Z,62.57
2019-05-19T13:13:05.132Z,63.25
2019-05-19T13:15:34.235Z,58.84
2019-05-19T13:18:03.244Z,55.20
2019-05-19T13:20:32.279Z,53.40
2019-05-19T13:23:01.373Z,53.06
2019-05-19T13:25:30.468Z,54.44
2019-05-19T13:27:59.581Z,54.09
2019-05-19T13:30:28.590Z,53.89
2019-05-19T13:32:57.618Z,54.23
2019-05-19T13:35:26.608Z,54.02
2019-05-19T13:37:55.677Z,54.96
2019-05-19T13:40:24.685Z,55.84
2019-05-19T13:42:53.882Z,56.55
2019-05-19T13:45:22.939Z,57.72
2019-05-19T13:47:52.045Z,58.17
2019-05-19T13:50:21.058Z,57.92
2019-05-19T13:52:51.314Z,58.17
2019-05-19T13:55:20.491Z,58.67
2019-05-19T13:57:49.742Z,58.90
2019-05-19T14:00:19.211Z,59.48
2019-05-19T14:02:48.225Z,59.19
2019-05-19T14:05:17.324Z,58.65
2019-05-19T14:07:46.331Z,58.35
2019-05-19T14:10:15.347Z,58.20
2019-05-19T14:12:44.370Z,56.53
2019-05-19T14:15:13.989Z,55.86
2019-05-19T14:17:43.127Z,55.43
2019-05-19T14:20:12.519Z,54.69
2019-05-19T14:22:41.545Z,54.77
2019-05-19T14:25:10.987Z,53.70
2019-05-19T14:27:40.011Z,53.37
2019-05-19T14:30:09.585Z,52.73
2019-05-19T14:32:38.621Z,52.02
2019-05-19T14:35:10.380Z,51.73
2019-05-19T14:37:39.492Z,50.38
2019-05-19T14:40:08.633Z,48.85
2019-05-19T14:42:51.235Z,50.81
2019-05-19T14:45:20.313Z,51.14
2019-05-19T14:47:49.341Z,51.83
2019-05-19T14:50:18.370Z,52.55
2019-05-19T14:52:47.444Z,52.71
2019-05-19T14:55:16.469Z,52.02
2019-05-19T14:57:45.820Z,51.84
2019-05-19T15:00:16.694Z,51.56
2019-05-19T15:02:45.698Z,49.55
2019-05-19T15:05:14.889Z,49.20
2019-05-19T15:07:44.159Z,47.63
2019-05-19T15:10:13.266Z,49.20
2019-05-19T15:12:42.325Z,50.60
2019-05-19T15:15:11.341Z,51.65
2019-05-19T15:17:40.402Z,52.66
2019-05-19T15:20:09.511Z,52.95
2019-05-19T15:22:38.595Z,53.13
2019-05-19T15:25:08.153Z,52.46
2019-05-19T15:27:37.389Z,50.66
2019-05-19T15:30:13.204Z,50.40
2019-05-19T15:32:38.992Z,49.63
2019-05-19T15:35:08.637Z,49.84
2019-05-19T15:37:37.648Z,48.69
2019-05-19T15:40:07.826Z,46.40
2019-05-19T15:42:36.933Z,45.61
2019-05-19T15:45:06.570Z,46.05
2019-05-19T15:47:35.616Z,46.58
2019-05-19T15:50:08.355Z,47.62
2019-05-19T15:52:37.441Z,49.22
2019-05-19T15:55:06.957Z,49.61
2019-05-19T15:57:36.216Z,50.44
2019-05-19T16:00:08.036Z,51.30
2019-05-19T16:02:37.659Z,52.07
2019-05-19T16:05:07.604Z,53.07
2019-05-19T16:07:36.633Z,53.31
2019-05-19T16:10:08.993Z,54.05
2019-05-19T16:12:38.021Z,54.60
2019-05-19T16:15:07.967Z,55.21
2019-05-19T16:17:37.071Z,55.23
2019-05-19T16:20:10.572Z,55.71
2019-05-19T16:22:39.605Z,56.23
2019-05-19T16:25:08.794Z,55.93
2019-05-19T16:27:37.828Z,56.20
2019-05-19T16:30:09.178Z,56.87
2019-05-19T16:32:38.449Z,57.02
2019-05-19T16:35:07.838Z,57.94
2019-05-19T16:37:36.956Z,58.79
2019-05-19T16:40:07.116Z,59.00
2019-05-19T16:42:37.645Z,59.13
2019-05-19T16:45:08.953Z,60.04
2019-05-19T16:47:38.009Z,59.75
2019-05-19T16:50:07.230Z,60.25
2019-05-19T16:52:36.246Z,60.48
2019-05-19T16:55:19.157Z,60.83
2019-05-19T16:57:48.140Z,60.69
2019-05-19T17:00:17.252Z,60.88
2019-05-19T17:02:46.361Z,61.96
2019-05-19T17:05:15.440Z,62.16
2019-05-19T17:07:44.449Z,62.21
2019-05-19T17:10:13.497Z,64.77
2019-05-19T17:12:42.519Z,63.75
2019-05-19T17:15:11.611Z,61.38
2019-05-19T17:17:40.633Z,59.09
2019-05-19T17:20:10.325Z,56.71
2019-05-19T17:22:39.629Z,56.71
2019-05-19T17:25:08.761Z,57.16
2019-05-19T17:27:37.796Z,58.27
2019-05-19T17:30:08.349Z,58.68
2019-05-19T17:32:37.499Z,60.30
2019-05-19T17:35:07.258Z,60.86
2019-05-19T17:37:36.289Z,62.43
2019-05-19T17:40:06.263Z,65.57
2019-05-19T17:42:37.333Z,65.19
2019-05-19T17:45:07.400Z,63.44
2019-05-19T17:47:36.702Z,61.61
2019-05-19T17:50:06.526Z,60.48
2019-05-19T17:52:35.817Z,59.31
2019-05-19T17:55:07.312Z,57.36
2019-05-19T17:57:37.115Z,57.13
2019-05-19T18:00:10.147Z,57.74
2019-05-19T18:02:39.184Z,59.05
2019-05-19T18:05:08.374Z,59.98
2019-05-19T18:07:37.455Z,61.72
2019-05-19T18:10:07.214Z,62.81
2019-05-19T18:12:36.255Z,66.32
2019-05-19T18:15:06.498Z,66.11
2019-05-19T18:17:35.512Z,64.53
2019-05-19T18:20:06.855Z,62.78
2019-05-19T18:22:35.862Z,61.05
2019-05-19T18:25:06.025Z,59.45
2019-05-19T18:27:35.045Z,57.82
2019-05-19T18:30:04.477Z,58.20
2019-05-19T18:32:33.505Z,58.97
2019-05-19T18:35:02.577Z,60.69
2019-05-19T18:37:31.663Z,61.96
2019-05-19T18:40:00.725Z,63.19
2019-05-19T18:42:29.755Z,67.51
2019-05-19T18:44:58.794Z,66.66
2019-05-19T18:47:28.349Z,65.13
2019-05-19T18:49:57.379Z,63.46
2019-05-19T18:52:26.420Z,62.21
2019-05-19T18:54:55.554Z,61.05
2019-05-19T18:57:24.594Z,60.31
2019-05-19T18:59:53.622Z,59.81
2019-05-19T19:02:22.648Z,59.26
2019-05-19T19:04:51.702Z,57.80
2019-05-19T19:07:22.370Z,58.42
2019-05-19T19:09:51.423Z,60.11
2019-05-19T19:12:20.459Z,61.61
2019-05-19T19:14:49.477Z,63.46
2019-05-19T19:17:18.541Z,67.31
2019-05-19T19:19:47.614Z,66.92
2019-05-19T19:22:16.717Z,65.34
2019-05-19T19:24:45.746Z,63.67
2019-05-19T19:27:14.855Z,62.02
2019-05-19T19:29:43.861Z,61.10
2019-05-19T19:32:12.893Z,60.45
2019-05-19T19:34:41.924Z,59.77
2019-05-19T19:37:10.945Z,59.31
2019-05-19T19:39:39.988Z,57.73
2019-05-19T19:42:09.020Z,58.73
2019-05-19T19:44:38.073Z,60.58
2019-05-19T19:47:07.176Z,62.10
2019-05-19T19:49:36.271Z,66.56
2019-05-19T19:52:05.299Z,66.86
2019-05-19T19:54:34.386Z,63.96
2019-05-19T19:57:03.416Z,62.64
2019-05-19T19:59:32.452Z,61.86
2019-05-19T20:02:01.548Z,60.64
2019-05-19T20:04:30.569Z,60.11
2019-05-19T20:06:59.666Z,59.55
2019-05-19T20:09:28.739Z,59.22
2019-05-19T20:11:57.763Z,58.24
2019-05-19T20:14:26.794Z,58.74
2019-05-19T20:16:55.840Z,60.36
2019-05-19T20:19:25.003Z,62.80
2019-05-19T20:21:54.101Z,68.01
2019-05-19T20:24:23.423Z,66.50
2019-05-19T20:26:52.449Z,64.98
2019-05-19T20:29:21.486Z,63.77
2019-05-19T20:31:50.522Z,62.43
2019-05-19T20:34:19.575Z,61.86
2019-05-19T20:36:48.670Z,61.07
2019-05-19T20:39:17.908Z,60.58
2019-05-19T20:41:47.021Z,60.30
2019-05-19T20:44:16.039Z,59.98
2019-05-19T20:46:45.221Z,59.64
2019-05-19T20:49:14.256Z,59.28
2019-05-19T20:51:43.382Z,58.19
2019-05-19T20:54:12.436Z,59.31
2019-05-19T20:56:41.489Z,61.31
2019-05-19T20:59:10.540Z,62.75
2019-05-19T21:01:39.561Z,67.92
2019-05-19T21:04:08.583Z,67.41
2019-05-19T21:06:37.620Z,65.78
2019-05-19T21:09:06.907Z,64.14
2019-05-19T21:11:35.945Z,63.34
2019-05-19T21:14:04.969Z,62.56
2019-05-19T21:16:33.986Z,61.81
2019-05-19T21:19:03.057Z,60.90
2019-05-19T21:21:32.064Z,60.47
2019-05-19T21:24:01.116Z,60.06
2019-05-19T21:26:30.132Z,59.98
2019-05-19T21:28:59.149Z,59.25
2019-05-19T21:31:28.175Z,58.13
2019-05-19T21:33:57.284Z,59.81
2019-05-19T21:36:26.297Z,60.84
2019-05-19T21:38:55.395Z,63.21
2019-05-19T21:41:24.442Z,68.45
2019-05-19T21:43:53.456Z,67.36
2019-05-19T21:46:22.489Z,65.95
2019-05-19T21:48:51.515Z,64.64
2019-05-19T21:51:20.531Z,64.16
2019-05-19T21:53:49.946Z,63.23
2019-05-19T21:56:18.970Z,62.38
2019-05-19T21:58:48.021Z,62.08
2019-05-19T22:01:23.255Z,60.92
2019-05-19T22:03:47.801Z,60.77
2019-05-19T22:06:18.276Z,60.34
2019-05-19T22:08:47.283Z,60.51
2019-05-19T22:11:16.313Z,60.08
2019-05-19T22:13:45.520Z,59.95
2019-05-19T22:16:14.589Z,60.16
2019-05-19T22:18:43.734Z,59.78
2019-05-19T22:21:12.689Z,59.96
2019-05-19T22:23:41.748Z,60.02
2019-05-19T22:26:10.766Z,60.27
